Terminal Aerodrome Forecast
Issued by NWS Shreveport, LA

Home | Current Version | Previous Version | Text Only | Print | Product List | Glossary On
Versions: 1 2 3 4 5 6 7 8 9 10 11 12 13
000
FTUS44 KSHV 280000 RRA
TAFGGG
TAF
KGGG 280007Z 2800/2824 35012G16KT P6SM VCSH BKN009 OVC015
      TEMPO 2800/2804 34010KT 5SM -RA BR SCT008 OVC015
     FM280600 33008KT P6SM OVC015
      TEMPO 2806/2810 4SM -RA BR OVC007
     FM281500 35006KT P6SM OVC035
     FM282100 33005KT P6SM OVC050=

USA.gov is the U.S. government's official web portal to all federal, state and local government web resources and services.